Sault Sainte Marie, Michigan
Current Conditions -  °F | °C
As of 11:55 AM on Saturday 25 Oct 2014 (Local Time) from KANJ Reporting Station
Few Clouds Few Clouds  
Wind Chill: 56°   Ceiling: Unl
Heat Index: 56°   Visibility: 10mi
Dew Point: 38°   Wind: 23mph
Humidity: 51%   Direction: 300°WNW
Pressure: 29.61"   Gusts: 35mph
Location:  46.3629°N, 84.3293°W
Report Text: KANJ 251555Z AUTO 30020G30KT 10SM FEW055 13/03 A2961 RMK AO2 PK WND 29035/1528 SLP027 T01330033
Loading
Personal Weather Stations






























Interactive Weather Map
Tropical Storm Tracking
New forecast layout! Learn more

10-Day Weather Forecast

Advertisements
Track Severe Weather on mobile